sensor_id;sensor_type;location;lat;lon;timestamp;P1;durP1;ratioP1;P2;durP2;ratioP2
1613;SDS011;800;48.824;9.346;2023-09-19T00:00:22;4.10;;;1.40;;
1613;SDS011;800;48.824;9.346;2023-09-19T00:02:54;1.43;;;1.10;;
1613;SDS011;800;48.824;9.346;2023-09-19T00:05:24;2.23;;;1.40;;
1613;SDS011;800;48.824;9.346;2023-09-19T00:07:54;1.50;;;1.27;;
1613;SDS011;800;48.824;9.346;2023-09-19T00:10:24;1.37;;;1.20;;
1613;SDS011;800;48.824;9.346;2023-09-19T00:12:51;4.93;;;1.50;;
1613;SDS011;800;48.824;9.346;2023-09-19T00:15:20;2.83;;;1.23;;
1613;SDS011;800;48.824;9.346;2023-09-19T00:17:46;3.20;;;1.70;;
1613;SDS011;800;48.824;9.346;2023-09-19T00:20:13;2.93;;;1.60;;
1613;SDS011;800;48.824;9.346;2023-09-19T00:22:42;1.60;;;1.13;;
1613;SDS011;800;48.824;9.346;2023-09-19T00:25:08;2.37;;;1.17;;
1613;SDS011;800;48.824;9.346;2023-09-19T00:27:39;1.20;;;1.00;;
1613;SDS011;800;48.824;9.346;2023-09-19T00:30:08;2.07;;;1.30;;
1613;SDS011;800;48.824;9.346;2023-09-19T00:32:49;1.27;;;1.10;;
1613;SDS011;800;48.824;9.346;2023-09-19T00:35:19;0.83;;;0.80;;
1613;SDS011;800;48.824;9.346;2023-09-19T00:37:45;1.20;;;1.03;;
1613;SDS011;800;48.824;9.346;2023-09-19T00:40:11;1.73;;;1.63;;
1613;SDS011;800;48.824;9.346;2023-09-19T00:42:37;1.20;;;1.10;;
1613;SDS011;800;48.824;9.346;2023-09-19T00:45:04;1.20;;;1.10;;
1613;SDS011;800;48.824;9.346;2023-09-19T00:47:31;1.10;;;1.00;;
1613;SDS011;800;48.824;9.346;2023-09-19T00:49:57;1.50;;;1.03;;
1613;SDS011;800;48.824;9.346;2023-09-19T00:52:23;1.20;;;1.10;;
1613;SDS011;800;48.824;9.346;2023-09-19T00:54:49;1.27;;;1.10;;
1613;SDS011;800;48.824;9.346;2023-09-19T00:57:15;2.63;;;0.97;;
1613;SDS011;800;48.824;9.346;2023-09-19T00:59:42;1.50;;;1.03;;
1613;SDS011;800;48.824;9.346;2023-09-19T01:02:08;1.40;;;1.30;;
1613;SDS011;800;48.824;9.346;2023-09-19T01:04:34;1.70;;;0.90;;
1613;SDS011;800;48.824;9.346;2023-09-19T01:07:00;2.20;;;1.20;;
1613;SDS011;800;48.824;9.346;2023-09-19T01:09:25;1.83;;;1.10;;
1613;SDS011;800;48.824;9.346;2023-09-19T01:11:52;1.80;;;1.10;;
1613;SDS011;800;48.824;9.346;2023-09-19T01:14:42;2.00;;;1.17;;
1613;SDS011;800;48.824;9.346;2023-09-19T01:17:23;1.33;;;1.03;;
1613;SDS011;800;48.824;9.346;2023-09-19T01:23:00;1.33;;;1.23;;
1613;SDS011;800;48.824;9.346;2023-09-19T01:30:37;1.27;;;1.10;;
1613;SDS011;800;48.824;9.346;2023-09-19T01:33:08;0.90;;;0.90;;
1613;SDS011;800;48.824;9.346;2023-09-19T01:35:37;1.10;;;0.90;;
1613;SDS011;800;48.824;9.346;2023-09-19T01:38:04;1.90;;;1.17;;
1613;SDS011;800;48.824;9.346;2023-09-19T01:40:32;1.33;;;1.00;;
1613;SDS011;800;48.824;9.346;2023-09-19T01:43:09;1.20;;;1.10;;
1613;SDS011;800;48.824;9.346;2023-09-19T01:45:56;1.40;;;1.30;;
1613;SDS011;800;48.824;9.346;2023-09-19T01:50:59;1.03;;;0.93;;
1613;SDS011;800;48.824;9.346;2023-09-19T01:56:18;1.70;;;1.10;;
1613;SDS011;800;48.824;9.346;2023-09-19T01:58:48;2.80;;;1.20;;
1613;SDS011;800;48.824;9.346;2023-09-19T02:01:16;2.30;;;1.40;;
1613;SDS011;800;48.824;9.346;2023-09-19T02:03:47;1.07;;;1.00;;
1613;SDS011;800;48.824;9.346;2023-09-19T02:06:15;1.10;;;1.00;;
1613;SDS011;800;48.824;9.346;2023-09-19T02:08:42;1.50;;;1.27;;
1613;SDS011;800;48.824;9.346;2023-09-19T02:11:08;2.47;;;1.20;;
1613;SDS011;800;48.824;9.346;2023-09-19T02:13:33;1.13;;;1.07;;
1613;SDS011;800;48.824;9.346;2023-09-19T02:15:59;1.17;;;1.07;;
1613;SDS011;800;48.824;9.346;2023-09-19T02:18:25;1.63;;;1.13;;
1613;SDS011;800;48.824;9.346;2023-09-19T02:20:53;1.63;;;1.40;;
1613;SDS011;800;48.824;9.346;2023-09-19T02:23:19;1.93;;;0.90;;
1613;SDS011;800;48.824;9.346;2023-09-19T02:25:52;1.27;;;1.17;;
1613;SDS011;800;48.824;9.346;2023-09-19T02:28:24;1.27;;;1.00;;
1613;SDS011;800;48.824;9.346;2023-09-19T02:30:49;1.10;;;0.80;;
1613;SDS011;800;48.824;9.346;2023-09-19T02:33:15;2.37;;;1.40;;
1613;SDS011;800;48.824;9.346;2023-09-19T02:35:42;1.10;;;1.00;;
1613;SDS011;800;48.824;9.346;2023-09-19T02:38:07;2.00;;;1.07;;
1613;SDS011;800;48.824;9.346;2023-09-19T02:40:36;0.80;;;0.80;;
1613;SDS011;800;48.824;9.346;2023-09-19T02:43:02;2.50;;;1.20;;
1613;SDS011;800;48.824;9.346;2023-09-19T02:45:28;1.23;;;1.13;;
1613;SDS011;800;48.824;9.346;2023-09-19T02:47:55;0.80;;;0.80;;
1613;SDS011;800;48.824;9.346;2023-09-19T02:50:20;1.50;;;1.10;;
1613;SDS011;800;48.824;9.346;2023-09-19T02:52:46;1.17;;;1.07;;
1613;SDS011;800;48.824;9.346;2023-09-19T02:55:16;2.30;;;1.37;;
1613;SDS011;800;48.824;9.346;2023-09-19T02:57:50;1.53;;;1.43;;
1613;SDS011;800;48.824;9.346;2023-09-19T03:00:18;1.80;;;1.40;;
1613;SDS011;800;48.824;9.346;2023-09-19T03:02:48;1.40;;;1.30;;
1613;SDS011;800;48.824;9.346;2023-09-19T03:05:14;1.27;;;1.17;;
1613;SDS011;800;48.824;9.346;2023-09-19T03:07:40;2.50;;;1.20;;
1613;SDS011;800;48.824;9.346;2023-09-19T03:10:08;1.53;;;1.10;;
1613;SDS011;800;48.824;9.346;2023-09-19T03:12:34;1.33;;;1.23;;
1613;SDS011;800;48.824;9.346;2023-09-19T03:15:00;1.70;;;0.93;;
1613;SDS011;800;48.824;9.346;2023-09-19T03:17:26;5.97;;;0.93;;
1613;SDS011;800;48.824;9.346;2023-09-19T03:19:52;1.60;;;1.13;;
1613;SDS011;800;48.824;9.346;2023-09-19T03:22:19;1.20;;;1.03;;
1613;SDS011;800;48.824;9.346;2023-09-19T03:24:44;1.30;;;1.20;;
1613;SDS011;800;48.824;9.346;2023-09-19T03:27:11;2.27;;;1.00;;
1613;SDS011;800;48.824;9.346;2023-09-19T03:29:41;2.00;;;1.00;;
1613;SDS011;800;48.824;9.346;2023-09-19T03:32:07;1.40;;;1.30;;
1613;SDS011;800;48.824;9.346;2023-09-19T03:34:35;1.27;;;1.17;;
1613;SDS011;800;48.824;9.346;2023-09-19T03:37:03;1.30;;;0.97;;
1613;SDS011;800;48.824;9.346;2023-09-19T03:39:29;1.20;;;0.80;;
1613;SDS011;800;48.824;9.346;2023-09-19T03:41:54;1.97;;;1.37;;
1613;SDS011;800;48.824;9.346;2023-09-19T03:44:20;2.00;;;1.33;;
1613;SDS011;800;48.824;9.346;2023-09-19T03:46:45;2.60;;;1.00;;
1613;SDS011;800;48.824;9.346;2023-09-19T03:49:11;1.10;;;0.93;;
1613;SDS011;800;48.824;9.346;2023-09-19T03:51:37;1.20;;;1.00;;
1613;SDS011;800;48.824;9.346;2023-09-19T03:54:03;1.10;;;1.00;;
1613;SDS011;800;48.824;9.346;2023-09-19T03:56:29;1.10;;;1.00;;
1613;SDS011;800;48.824;9.346;2023-09-19T03:58:54;1.50;;;1.40;;
1613;SDS011;800;48.824;9.346;2023-09-19T04:01:20;1.93;;;1.23;;
1613;SDS011;800;48.824;9.346;2023-09-19T04:03:46;2.47;;;1.23;;
1613;SDS011;800;48.824;9.346;2023-09-19T04:06:13;2.30;;;1.10;;
1613;SDS011;800;48.824;9.346;2023-09-19T04:08:39;1.20;;;1.10;;
1613;SDS011;800;48.824;9.346;2023-09-19T04:11:05;1.20;;;1.10;;
1613;SDS011;800;48.824;9.346;2023-09-19T04:13:30;1.10;;;1.00;;
1613;SDS011;800;48.824;9.346;2023-09-19T04:15:56;1.27;;;1.10;;
1613;SDS011;800;48.824;9.346;2023-09-19T04:18:21;2.00;;;1.40;;
1613;SDS011;800;48.824;9.346;2023-09-19T04:20:52;0.90;;;0.90;;
1613;SDS011;800;48.824;9.346;2023-09-19T04:23:18;1.20;;;1.00;;
1613;SDS011;800;48.824;9.346;2023-09-19T04:25:45;1.13;;;1.03;;
1613;SDS011;800;48.824;9.346;2023-09-19T04:28:11;2.90;;;1.13;;
1613;SDS011;800;48.824;9.346;2023-09-19T04:30:37;1.30;;;1.03;;
1613;SDS011;800;48.824;9.346;2023-09-19T04:33:05;2.10;;;1.10;;
1613;SDS011;800;48.824;9.346;2023-09-19T04:35:31;2.50;;;1.10;;
1613;SDS011;800;48.824;9.346;2023-09-19T04:37:57;2.30;;;1.30;;
1613;SDS011;800;48.824;9.346;2023-09-19T04:40:23;1.70;;;1.60;;
1613;SDS011;800;48.824;9.346;2023-09-19T04:42:55;5.63;;;1.27;;
1613;SDS011;800;48.824;9.346;2023-09-19T04:45:21;3.90;;;1.20;;
1613;SDS011;800;48.824;9.346;2023-09-19T04:47:48;1.40;;;1.30;;
1613;SDS011;800;48.824;9.346;2023-09-19T04:50:13;2.20;;;1.10;;
1613;SDS011;800;48.824;9.346;2023-09-19T04:52:39;3.00;;;1.90;;
1613;SDS011;800;48.824;9.346;2023-09-19T04:55:07;3.00;;;1.50;;
1613;SDS011;800;48.824;9.346;2023-09-19T04:57:34;2.50;;;1.30;;
1613;SDS011;800;48.824;9.346;2023-09-19T05:00:01;1.33;;;1.20;;
1613;SDS011;800;48.824;9.346;2023-09-19T05:02:31;2.20;;;1.30;;
1613;SDS011;800;48.824;9.346;2023-09-19T05:04:59;2.07;;;1.13;;
1613;SDS011;800;48.824;9.346;2023-09-19T05:07:25;2.13;;;1.10;;
1613;SDS011;800;48.824;9.346;2023-09-19T05:09:51;1.60;;;1.50;;
1613;SDS011;800;48.824;9.346;2023-09-19T05:12:16;1.57;;;1.40;;
1613;SDS011;800;48.824;9.346;2023-09-19T05:14:44;3.33;;;2.10;;
1613;SDS011;800;48.824;9.346;2023-09-19T05:17:10;2.83;;;1.20;;
1613;SDS011;800;48.824;9.346;2023-09-19T05:19:35;2.77;;;1.73;;
1613;SDS011;800;48.824;9.346;2023-09-19T05:22:03;2.23;;;1.40;;
1613;SDS011;800;48.824;9.346;2023-09-19T05:24:29;3.20;;;1.77;;
1613;SDS011;800;48.824;9.346;2023-09-19T05:26:55;5.20;;;1.43;;
1613;SDS011;800;48.824;9.346;2023-09-19T05:29:22;2.37;;;1.50;;
1613;SDS011;800;48.824;9.346;2023-09-19T05:31:47;1.90;;;1.30;;
1613;SDS011;800;48.824;9.346;2023-09-19T05:34:14;1.70;;;1.40;;
1613;SDS011;800;48.824;9.346;2023-09-19T05:36:40;1.43;;;1.20;;
1613;SDS011;800;48.824;9.346;2023-09-19T05:39:06;2.03;;;1.37;;
1613;SDS011;800;48.824;9.346;2023-09-19T05:41:34;1.73;;;1.50;;
1613;SDS011;800;48.824;9.346;2023-09-19T05:44:02;1.80;;;1.57;;
1613;SDS011;800;48.824;9.346;2023-09-19T05:46:28;1.33;;;1.23;;
1613;SDS011;800;48.824;9.346;2023-09-19T05:48:54;1.50;;;1.20;;
1613;SDS011;800;48.824;9.346;2023-09-19T05:51:23;3.30;;;1.60;;
1613;SDS011;800;48.824;9.346;2023-09-19T05:53:50;2.33;;;1.50;;
1613;SDS011;800;48.824;9.346;2023-09-19T05:56:15;3.87;;;1.10;;
1613;SDS011;800;48.824;9.346;2023-09-19T05:58:43;2.80;;;1.63;;
1613;SDS011;800;48.824;9.346;2023-09-19T06:01:09;1.87;;;1.70;;
1613;SDS011;800;48.824;9.346;2023-09-19T06:03:35;1.50;;;1.40;;
1613;SDS011;800;48.824;9.346;2023-09-19T06:06:01;3.47;;;1.67;;
1613;SDS011;800;48.824;9.346;2023-09-19T06:08:27;2.57;;;1.80;;
1613;SDS011;800;48.824;9.346;2023-09-19T06:10:53;1.93;;;1.40;;
1613;SDS011;800;48.824;9.346;2023-09-19T06:13:19;2.10;;;1.77;;
1613;SDS011;800;48.824;9.346;2023-09-19T06:15:45;4.13;;;1.87;;
1613;SDS011;800;48.824;9.346;2023-09-19T06:18:12;3.43;;;1.70;;
1613;SDS011;800;48.824;9.346;2023-09-19T06:20:47;1.60;;;1.50;;
1613;SDS011;800;48.824;9.346;2023-09-19T06:23:15;2.07;;;1.53;;
1613;SDS011;800;48.824;9.346;2023-09-19T06:25:42;3.83;;;1.70;;
1613;SDS011;800;48.824;9.346;2023-09-19T06:28:10;6.03;;;1.80;;
1613;SDS011;800;48.824;9.346;2023-09-19T06:30:39;1.67;;;1.57;;
1613;SDS011;800;48.824;9.346;2023-09-19T06:33:05;1.97;;;1.77;;
1613;SDS011;800;48.824;9.346;2023-09-19T06:35:32;4.07;;;1.93;;
1613;SDS011;800;48.824;9.346;2023-09-19T06:37:58;2.00;;;1.63;;
1613;SDS011;800;48.824;9.346;2023-09-19T06:40:27;5.53;;;2.00;;
1613;SDS011;800;48.824;9.346;2023-09-19T06:42:55;2.37;;;2.17;;
1613;SDS011;800;48.824;9.346;2023-09-19T06:45:21;2.40;;;2.00;;
1613;SDS011;800;48.824;9.346;2023-09-19T06:47:48;2.00;;;1.90;;
1613;SDS011;800;48.824;9.346;2023-09-19T06:50:15;3.93;;;2.00;;
1613;SDS011;800;48.824;9.346;2023-09-19T06:52:47;7.50;;;2.20;;
1613;SDS011;800;48.824;9.346;2023-09-19T06:55:15;5.80;;;2.00;;
1613;SDS011;800;48.824;9.346;2023-09-19T06:57:41;3.23;;;2.27;;
1613;SDS011;800;48.824;9.346;2023-09-19T07:00:08;4.10;;;2.30;;
1613;SDS011;800;48.824;9.346;2023-09-19T07:02:41;3.47;;;2.10;;
1613;SDS011;800;48.824;9.346;2023-09-19T07:05:07;3.30;;;2.10;;
1613;SDS011;800;48.824;9.346;2023-09-19T07:07:33;5.30;;;2.20;;
1613;SDS011;800;48.824;9.346;2023-09-19T07:10:00;4.37;;;2.43;;
1613;SDS011;800;48.824;9.346;2023-09-19T07:12:26;3.73;;;2.37;;
1613;SDS011;800;48.824;9.346;2023-09-19T07:14:51;5.27;;;2.17;;
1613;SDS011;800;48.824;9.346;2023-09-19T07:17:17;3.10;;;2.40;;
1613;SDS011;800;48.824;9.346;2023-09-19T07:19:44;2.17;;;1.80;;
1613;SDS011;800;48.824;9.346;2023-09-19T07:22:10;3.37;;;2.23;;
1613;SDS011;800;48.824;9.346;2023-09-19T07:24:35;4.43;;;2.10;;
1613;SDS011;800;48.824;9.346;2023-09-19T07:27:01;3.20;;;2.10;;
1613;SDS011;800;48.824;9.346;2023-09-19T07:29:27;3.17;;;2.17;;
1613;SDS011;800;48.824;9.346;2023-09-19T07:31:53;3.70;;;2.20;;
1613;SDS011;800;48.824;9.346;2023-09-19T07:34:19;4.47;;;1.90;;
1613;SDS011;800;48.824;9.346;2023-09-19T07:36:46;4.30;;;2.00;;
1613;SDS011;800;48.824;9.346;2023-09-19T07:39:12;4.53;;;1.67;;
1613;SDS011;800;48.824;9.346;2023-09-19T07:41:38;3.83;;;2.17;;
1613;SDS011;800;48.824;9.346;2023-09-19T07:44:04;3.53;;;1.80;;
1613;SDS011;800;48.824;9.346;2023-09-19T07:46:30;2.60;;;2.00;;
1613;SDS011;800;48.824;9.346;2023-09-19T07:48:56;2.23;;;1.87;;
1613;SDS011;800;48.824;9.346;2023-09-19T07:51:22;2.50;;;1.70;;
1613;SDS011;800;48.824;9.346;2023-09-19T07:53:48;6.93;;;1.97;;
1613;SDS011;800;48.824;9.346;2023-09-19T07:56:13;4.70;;;1.80;;
1613;SDS011;800;48.824;9.346;2023-09-19T07:58:40;5.70;;;2.00;;
1613;SDS011;800;48.824;9.346;2023-09-19T08:01:09;4.60;;;1.90;;
1613;SDS011;800;48.824;9.346;2023-09-19T08:03:35;3.03;;;2.03;;
1613;SDS011;800;48.824;9.346;2023-09-19T08:06:05;2.47;;;2.00;;
1613;SDS011;800;48.824;9.346;2023-09-19T08:08:32;3.27;;;1.53;;
1613;SDS011;800;48.824;9.346;2023-09-19T08:10:59;5.10;;;2.10;;
1613;SDS011;800;48.824;9.346;2023-09-19T08:13:26;2.90;;;1.57;;
1613;SDS011;800;48.824;9.346;2023-09-19T08:15:52;3.70;;;2.07;;
1613;SDS011;800;48.824;9.346;2023-09-19T08:18:21;3.63;;;2.13;;
1613;SDS011;800;48.824;9.346;2023-09-19T08:20:51;1.87;;;1.53;;
1613;SDS011;800;48.824;9.346;2023-09-19T08:23:17;3.20;;;1.77;;
1613;SDS011;800;48.824;9.346;2023-09-19T08:25:45;3.27;;;1.47;;
1613;SDS011;800;48.824;9.346;2023-09-19T08:28:11;3.00;;;1.93;;
1613;SDS011;800;48.824;9.346;2023-09-19T08:30:44;2.70;;;1.60;;
1613;SDS011;800;48.824;9.346;2023-09-19T08:33:12;1.53;;;1.43;;
1613;SDS011;800;48.824;9.346;2023-09-19T08:35:40;2.33;;;1.53;;
1613;SDS011;800;48.824;9.346;2023-09-19T08:38:08;1.90;;;1.70;;
1613;SDS011;800;48.824;9.346;2023-09-19T08:40:38;3.23;;;1.50;;
1613;SDS011;800;48.824;9.346;2023-09-19T08:43:06;3.53;;;1.60;;
1613;SDS011;800;48.824;9.346;2023-09-19T08:45:32;2.67;;;1.70;;
1613;SDS011;800;48.824;9.346;2023-09-19T08:48:10;2.57;;;1.50;;
1613;SDS011;800;48.824;9.346;2023-09-19T08:50:45;2.70;;;1.70;;
1613;SDS011;800;48.824;9.346;2023-09-19T08:53:26;2.40;;;1.63;;
1613;SDS011;800;48.824;9.346;2023-09-19T08:56:16;3.13;;;1.83;;
1613;SDS011;800;48.824;9.346;2023-09-19T08:58:48;2.07;;;1.90;;
1613;SDS011;800;48.824;9.346;2023-09-19T09:01:18;2.10;;;1.90;;
1613;SDS011;800;48.824;9.346;2023-09-19T09:03:51;1.60;;;1.40;;
1613;SDS011;800;48.824;9.346;2023-09-19T09:06:18;2.10;;;1.90;;
1613;SDS011;800;48.824;9.346;2023-09-19T09:08:45;1.80;;;1.63;;
1613;SDS011;800;48.824;9.346;2023-09-19T09:11:11;3.67;;;1.37;;
1613;SDS011;800;48.824;9.346;2023-09-19T09:13:39;1.63;;;1.53;;
1613;SDS011;800;48.824;9.346;2023-09-19T09:16:06;3.27;;;1.60;;
1613;SDS011;800;48.824;9.346;2023-09-19T09:18:32;3.83;;;1.37;;
1613;SDS011;800;48.824;9.346;2023-09-19T09:20:58;1.70;;;1.60;;
1613;SDS011;800;48.824;9.346;2023-09-19T09:25:54;5.13;;;1.47;;
1613;SDS011;800;48.824;9.346;2023-09-19T09:28:21;1.17;;;1.17;;
1613;SDS011;800;48.824;9.346;2023-09-19T09:30:48;3.40;;;1.50;;
1613;SDS011;800;48.824;9.346;2023-09-19T09:33:15;3.20;;;1.00;;
1613;SDS011;800;48.824;9.346;2023-09-19T09:35:51;1.50;;;1.40;;
1613;SDS011;800;48.824;9.346;2023-09-19T09:38:19;1.60;;;1.30;;
1613;SDS011;800;48.824;9.346;2023-09-19T09:40:46;1.40;;;1.10;;
1613;SDS011;800;48.824;9.346;2023-09-19T09:43:30;2.93;;;1.70;;
1613;SDS011;800;48.824;9.346;2023-09-19T09:46:07;1.53;;;1.43;;
1613;SDS011;800;48.824;9.346;2023-09-19T09:48:57;1.50;;;1.40;;
1613;SDS011;800;48.824;9.346;2023-09-19T09:51:41;2.53;;;1.17;;
1613;SDS011;800;48.824;9.346;2023-09-19T09:54:09;2.80;;;1.50;;
1613;SDS011;800;48.824;9.346;2023-09-19T09:56:58;1.53;;;1.43;;
1613;SDS011;800;48.824;9.346;2023-09-19T09:59:51;1.83;;;1.50;;
1613;SDS011;800;48.824;9.346;2023-09-19T10:02:39;2.10;;;1.50;;
1613;SDS011;800;48.824;9.346;2023-09-19T10:05:16;1.47;;;1.37;;
1613;SDS011;800;48.824;9.346;2023-09-19T10:07:46;1.53;;;1.37;;
1613;SDS011;800;48.824;9.346;2023-09-19T10:10:33;2.20;;;1.30;;
1613;SDS011;800;48.824;9.346;2023-09-19T10:13:10;1.80;;;1.50;;
1613;SDS011;800;48.824;9.346;2023-09-19T10:15:38;3.67;;;2.00;;
1613;SDS011;800;48.824;9.346;2023-09-19T10:18:14;2.07;;;1.30;;
1613;SDS011;800;48.824;9.346;2023-09-19T10:20:43;2.20;;;2.00;;
1613;SDS011;800;48.824;9.346;2023-09-19T10:23:10;1.40;;;1.20;;
1613;SDS011;800;48.824;9.346;2023-09-19T10:25:43;2.10;;;1.37;;
1613;SDS011;800;48.824;9.346;2023-09-19T10:28:12;2.00;;;1.47;;
1613;SDS011;800;48.824;9.346;2023-09-19T10:30:45;1.67;;;1.30;;
1613;SDS011;800;48.824;9.346;2023-09-19T10:33:13;2.83;;;1.53;;
1613;SDS011;800;48.824;9.346;2023-09-19T10:35:41;2.50;;;1.97;;
1613;SDS011;800;48.824;9.346;2023-09-19T10:38:12;1.90;;;1.77;;
1613;SDS011;800;48.824;9.346;2023-09-19T10:40:41;2.90;;;1.57;;
1613;SDS011;800;48.824;9.346;2023-09-19T10:43:12;2.03;;;1.33;;
1613;SDS011;800;48.824;9.346;2023-09-19T10:45:42;2.20;;;1.50;;
1613;SDS011;800;48.824;9.346;2023-09-19T10:48:10;2.30;;;1.63;;
1613;SDS011;800;48.824;9.346;2023-09-19T10:50:41;2.07;;;1.60;;
1613;SDS011;800;48.824;9.346;2023-09-19T10:53:10;2.30;;;1.57;;
1613;SDS011;800;48.824;9.346;2023-09-19T10:55:37;2.40;;;1.30;;
1613;SDS011;800;48.824;9.346;2023-09-19T10:58:03;1.83;;;1.20;;
1613;SDS011;800;48.824;9.346;2023-09-19T11:00:52;1.93;;;1.43;;
1613;SDS011;800;48.824;9.346;2023-09-19T11:03:19;1.50;;;1.40;;
1613;SDS011;800;48.824;9.346;2023-09-19T11:16:41;1.47;;;1.37;;
1613;SDS011;800;48.824;9.346;2023-09-19T11:30:31;2.80;;;1.37;;
1613;SDS011;800;48.824;9.346;2023-09-19T11:36:06;1.67;;;1.30;;
1613;SDS011;800;48.824;9.346;2023-09-19T11:43:46;1.40;;;1.30;;
1613;SDS011;800;48.824;9.346;2023-09-19T11:46:12;0.90;;;0.90;;
1613;SDS011;800;48.824;9.346;2023-09-19T11:48:41;1.20;;;1.10;;
1613;SDS011;800;48.824;9.346;2023-09-19T11:51:10;1.57;;;1.10;;
1613;SDS011;800;48.824;9.346;2023-09-19T11:53:44;1.63;;;1.27;;
1613;SDS011;800;48.824;9.346;2023-09-19T11:56:21;1.50;;;1.27;;
1613;SDS011;800;48.824;9.346;2023-09-19T11:58:50;1.40;;;1.30;;
1613;SDS011;800;48.824;9.346;2023-09-19T12:01:22;1.80;;;1.43;;
1613;SDS011;800;48.824;9.346;2023-09-19T12:03:55;1.47;;;1.40;;
1613;SDS011;800;48.824;9.346;2023-09-19T12:06:23;1.60;;;1.40;;
1613;SDS011;800;48.824;9.346;2023-09-19T12:08:49;2.77;;;1.43;;
1613;SDS011;800;48.824;9.346;2023-09-19T12:11:19;2.50;;;1.17;;
1613;SDS011;800;48.824;9.346;2023-09-19T12:13:46;1.60;;;1.27;;
1613;SDS011;800;48.824;9.346;2023-09-19T12:16:17;3.50;;;1.50;;
1613;SDS011;800;48.824;9.346;2023-09-19T12:18:46;1.67;;;1.00;;
1613;SDS011;800;48.824;9.346;2023-09-19T12:26:29;2.33;;;1.40;;
1613;SDS011;800;48.824;9.346;2023-09-19T12:29:02;1.27;;;1.07;;
1613;SDS011;800;48.824;9.346;2023-09-19T12:31:30;2.17;;;1.30;;
1613;SDS011;800;48.824;9.346;2023-09-19T12:34:01;2.13;;;1.20;;
1613;SDS011;800;48.824;9.346;2023-09-19T12:36:27;1.33;;;1.23;;
1613;SDS011;800;48.824;9.346;2023-09-19T12:38:58;1.20;;;1.10;;
1613;SDS011;800;48.824;9.346;2023-09-19T12:41:24;1.77;;;1.37;;
1613;SDS011;800;48.824;9.346;2023-09-19T12:43:53;1.47;;;1.20;;
1613;SDS011;800;48.824;9.346;2023-09-19T12:46:20;5.53;;;1.43;;
1613;SDS011;800;48.824;9.346;2023-09-19T12:49:14;1.73;;;1.63;;
1613;SDS011;800;48.824;9.346;2023-09-19T12:51:47;2.83;;;1.63;;
1613;SDS011;800;48.824;9.346;2023-09-19T12:54:14;1.50;;;1.30;;
1613;SDS011;800;48.824;9.346;2023-09-19T12:56:42;1.23;;;1.13;;
1613;SDS011;800;48.824;9.346;2023-09-19T12:59:10;1.43;;;1.33;;
1613;SDS011;800;48.824;9.346;2023-09-19T13:01:39;1.70;;;1.60;;
1613;SDS011;800;48.824;9.346;2023-09-19T13:04:18;1.20;;;1.10;;
1613;SDS011;800;48.824;9.346;2023-09-19T13:06:46;1.50;;;1.40;;
1613;SDS011;800;48.824;9.346;2023-09-19T13:09:13;3.83;;;1.30;;
1613;SDS011;800;48.824;9.346;2023-09-19T13:11:40;2.07;;;1.20;;
1613;SDS011;800;48.824;9.346;2023-09-19T13:19:41;2.60;;;1.20;;
1613;SDS011;800;48.824;9.346;2023-09-19T13:38:09;1.57;;;1.40;;
1613;SDS011;800;48.824;9.346;2023-09-19T13:40:36;2.27;;;1.43;;
1613;SDS011;800;48.824;9.346;2023-09-19T13:43:04;1.77;;;1.33;;
1613;SDS011;800;48.824;9.346;2023-09-19T13:45:31;4.03;;;1.50;;
1613;SDS011;800;48.824;9.346;2023-09-19T13:47:57;2.03;;;1.80;;
1613;SDS011;800;48.824;9.346;2023-09-19T13:50:26;1.50;;;1.40;;
1613;SDS011;800;48.824;9.346;2023-09-19T13:52:54;1.57;;;1.47;;
1613;SDS011;800;48.824;9.346;2023-09-19T13:55:20;1.73;;;1.40;;
1613;SDS011;800;48.824;9.346;2023-09-19T13:57:46;1.87;;;1.50;;
1613;SDS011;800;48.824;9.346;2023-09-19T14:00:15;1.70;;;1.50;;
1613;SDS011;800;48.824;9.346;2023-09-19T14:02:41;2.40;;;1.60;;
1613;SDS011;800;48.824;9.346;2023-09-19T14:05:11;3.13;;;1.60;;
1613;SDS011;800;48.824;9.346;2023-09-19T14:07:39;6.60;;;2.30;;
1613;SDS011;800;48.824;9.346;2023-09-19T14:10:06;3.00;;;1.60;;
1613;SDS011;800;48.824;9.346;2023-09-19T14:12:38;1.60;;;1.30;;
1613;SDS011;800;48.824;9.346;2023-09-19T14:15:07;1.63;;;1.30;;
1613;SDS011;800;48.824;9.346;2023-09-19T14:17:33;2.50;;;1.43;;
1613;SDS011;800;48.824;9.346;2023-09-19T14:19:59;3.07;;;1.53;;
1613;SDS011;800;48.824;9.346;2023-09-19T14:22:25;1.93;;;1.40;;
1613;SDS011;800;48.824;9.346;2023-09-19T14:24:51;3.70;;;1.27;;
1613;SDS011;800;48.824;9.346;2023-09-19T14:27:17;1.70;;;1.53;;
1613;SDS011;800;48.824;9.346;2023-09-19T14:29:43;2.23;;;1.50;;
1613;SDS011;800;48.824;9.346;2023-09-19T14:32:09;1.43;;;1.30;;
1613;SDS011;800;48.824;9.346;2023-09-19T14:34:35;1.87;;;1.40;;
1613;SDS011;800;48.824;9.346;2023-09-19T14:37:06;3.13;;;1.33;;
1613;SDS011;800;48.824;9.346;2023-09-19T14:39:32;1.80;;;1.37;;
1613;SDS011;800;48.824;9.346;2023-09-19T14:41:58;4.50;;;1.53;;
1613;SDS011;800;48.824;9.346;2023-09-19T14:44:23;1.80;;;1.20;;
1613;SDS011;800;48.824;9.346;2023-09-19T14:46:49;1.57;;;1.47;;
1613;SDS011;800;48.824;9.346;2023-09-19T14:49:15;2.37;;;1.60;;
1613;SDS011;800;48.824;9.346;2023-09-19T14:51:42;1.40;;;1.30;;
1613;SDS011;800;48.824;9.346;2023-09-19T14:54:12;1.80;;;1.43;;
1613;SDS011;800;48.824;9.346;2023-09-19T14:56:41;2.33;;;1.40;;
1613;SDS011;800;48.824;9.346;2023-09-19T14:59:07;4.40;;;1.60;;
1613;SDS011;800;48.824;9.346;2023-09-19T15:01:35;2.23;;;1.60;;
1613;SDS011;800;48.824;9.346;2023-09-19T15:04:01;1.50;;;1.40;;
1613;SDS011;800;48.824;9.346;2023-09-19T15:06:27;1.97;;;1.30;;
1613;SDS011;800;48.824;9.346;2023-09-19T15:08:53;1.63;;;1.20;;
1613;SDS011;800;48.824;9.346;2023-09-19T15:11:18;3.57;;;1.33;;
1613;SDS011;800;48.824;9.346;2023-09-19T15:13:46;1.50;;;1.30;;
1613;SDS011;800;48.824;9.346;2023-09-19T15:16:12;1.90;;;1.50;;
1613;SDS011;800;48.824;9.346;2023-09-19T15:18:39;2.10;;;1.30;;
1613;SDS011;800;48.824;9.346;2023-09-19T15:21:07;1.23;;;1.13;;
1613;SDS011;800;48.824;9.346;2023-09-19T15:23:34;2.80;;;1.47;;
1613;SDS011;800;48.824;9.346;2023-09-19T15:26:02;1.60;;;1.37;;
1613;SDS011;800;48.824;9.346;2023-09-19T15:28:28;1.53;;;1.30;;
1613;SDS011;800;48.824;9.346;2023-09-19T15:31:05;1.60;;;1.50;;
1613;SDS011;800;48.824;9.346;2023-09-19T15:33:32;1.67;;;1.40;;
1613;SDS011;800;48.824;9.346;2023-09-19T15:36:02;1.73;;;1.40;;
1613;SDS011;800;48.824;9.346;2023-09-19T15:38:50;1.40;;;1.30;;
1613;SDS011;800;48.824;9.346;2023-09-19T15:41:25;2.70;;;1.33;;
1613;SDS011;800;48.824;9.346;2023-09-19T15:43:53;1.47;;;1.37;;
1613;SDS011;800;48.824;9.346;2023-09-19T15:46:19;1.10;;;1.00;;
1613;SDS011;800;48.824;9.346;2023-09-19T15:48:46;1.23;;;1.13;;
1613;SDS011;800;48.824;9.346;2023-09-19T15:51:12;1.37;;;1.27;;
1613;SDS011;800;48.824;9.346;2023-09-19T15:56:14;2.33;;;1.20;;
1613;SDS011;800;48.824;9.346;2023-09-19T15:58:43;1.50;;;1.40;;
1613;SDS011;800;48.824;9.346;2023-09-19T16:01:09;1.40;;;1.30;;
1613;SDS011;800;48.824;9.346;2023-09-19T16:03:36;1.90;;;1.10;;
1613;SDS011;800;48.824;9.346;2023-09-19T16:06:12;1.43;;;1.33;;
1613;SDS011;800;48.824;9.346;2023-09-19T16:08:42;3.03;;;1.27;;
1613;SDS011;800;48.824;9.346;2023-09-19T16:11:09;2.27;;;1.23;;
1613;SDS011;800;48.824;9.346;2023-09-19T16:13:36;2.40;;;1.67;;
1613;SDS011;800;48.824;9.346;2023-09-19T16:16:02;1.60;;;1.30;;
1613;SDS011;800;48.824;9.346;2023-09-19T16:18:28;1.40;;;1.30;;
1613;SDS011;800;48.824;9.346;2023-09-19T16:21:03;1.97;;;1.13;;
1613;SDS011;800;48.824;9.346;2023-09-19T16:23:29;1.30;;;1.20;;
1613;SDS011;800;48.824;9.346;2023-09-19T16:26:00;3.00;;;1.10;;
1613;SDS011;800;48.824;9.346;2023-09-19T16:28:30;2.00;;;1.40;;
1613;SDS011;800;48.824;9.346;2023-09-19T16:31:01;1.77;;;1.50;;
1613;SDS011;800;48.824;9.346;2023-09-19T16:33:38;1.77;;;1.57;;
1613;SDS011;800;48.824;9.346;2023-09-19T16:36:18;3.07;;;1.37;;
1613;SDS011;800;48.824;9.346;2023-09-19T16:38:45;2.30;;;1.67;;
1613;SDS011;800;48.824;9.346;2023-09-19T16:41:13;1.90;;;1.30;;
1613;SDS011;800;48.824;9.346;2023-09-19T16:43:39;1.97;;;1.13;;
1613;SDS011;800;48.824;9.346;2023-09-19T16:46:06;2.37;;;1.30;;
1613;SDS011;800;48.824;9.346;2023-09-19T16:48:36;2.00;;;1.33;;
1613;SDS011;800;48.824;9.346;2023-09-19T16:51:07;1.37;;;1.27;;
1613;SDS011;800;48.824;9.346;2023-09-19T16:53:34;1.53;;;1.30;;